KCCB Airport (Cable) Information

FAA: CCB - ICAO: KCCB

KCCB Airport Location

State California
County San Bernardino
City Upland
KCCB Airport is 2 miles northwest of Upland, CA.
Latitude 34-06-41.8000N
Longitude 117-41-14.6000W
Elevation 1,443ft

KCCB Airport METARs

METAR KCCB 240955Z AUTO 00000KT 10SM FEW075 20/11 A2994 RMK AO2
Altimeter 29.94"
Temperature 20.0°C (68.0°F)
Wind 0° at 0KT
Clouds few at 7,500ft
Visibility 10.0mi
Time observed: 2021-09-24T09:55:00Z

KCCB Airport Details

Status Operational
Activation September 1945
Ownership Private
Usage Public
Chart LOS ANGELES
ATC on-site No
Beacon schedule sunset-sunrise
Beacon color clear green

KCCB Airport Contacts

Owner CABLE LAND CO - A PARTNERSHIP
Owner address 1749 WEST 13TH STREET, UPLAND, CA 91786-2199
Owner phone 909-982-6021
Manager GREG OWEN
Manager address 1403 S. STATE STREET, UKIAH, CA 95482
Manager phone 707-467-2855

KCCB Airport (Cable) Radio Frequencies

KCCB (Airport) Radio Frequencies

UNICOM 123
Common traffic advisory frequency (CTAF) 123